sensor_id;sensor_type;location;lat;lon;timestamp;P1;durP1;ratioP1;P2;durP2;ratioP2
10082;SDS011;5080;48.528;8.078;2023-02-28T00:00:25;0.70;;;0.70;;
10082;SDS011;5080;48.528;8.078;2023-02-28T00:02:52;0.70;;;0.70;;
10082;SDS011;5080;48.528;8.078;2023-02-28T00:05:20;0.65;;;0.65;;
10082;SDS011;5080;48.528;8.078;2023-02-28T00:07:48;0.90;;;0.90;;
10082;SDS011;5080;48.528;8.078;2023-02-28T00:10:17;1.00;;;1.00;;
10082;SDS011;5080;48.528;8.078;2023-02-28T00:12:45;0.93;;;0.93;;
10082;SDS011;5080;48.528;8.078;2023-02-28T00:15:12;0.90;;;0.90;;
10082;SDS011;5080;48.528;8.078;2023-02-28T00:17:39;0.80;;;0.80;;
10082;SDS011;5080;48.528;8.078;2023-02-28T00:20:08;0.70;;;0.70;;
10082;SDS011;5080;48.528;8.078;2023-02-28T00:22:37;0.70;;;0.70;;
10082;SDS011;5080;48.528;8.078;2023-02-28T00:25:05;0.80;;;0.80;;
10082;SDS011;5080;48.528;8.078;2023-02-28T00:27:34;1.27;;;0.82;;
10082;SDS011;5080;48.528;8.078;2023-02-28T00:30:01;0.63;;;0.63;;
10082;SDS011;5080;48.528;8.078;2023-02-28T00:32:29;0.90;;;0.90;;
10082;SDS011;5080;48.528;8.078;2023-02-28T00:34:56;0.77;;;0.77;;
10082;SDS011;5080;48.528;8.078;2023-02-28T00:37:23;0.80;;;0.80;;
10082;SDS011;5080;48.528;8.078;2023-02-28T00:39:49;0.80;;;0.80;;
10082;SDS011;5080;48.528;8.078;2023-02-28T00:42:16;0.80;;;0.80;;
10082;SDS011;5080;48.528;8.078;2023-02-28T00:44:44;0.70;;;0.70;;
10082;SDS011;5080;48.528;8.078;2023-02-28T00:47:11;0.70;;;0.70;;
10082;SDS011;5080;48.528;8.078;2023-02-28T00:49:38;0.80;;;0.80;;
10082;SDS011;5080;48.528;8.078;2023-02-28T00:52:05;0.70;;;0.70;;
10082;SDS011;5080;48.528;8.078;2023-02-28T00:54:32;0.80;;;0.80;;
10082;SDS011;5080;48.528;8.078;2023-02-28T00:56:59;1.20;;;1.00;;
10082;SDS011;5080;48.528;8.078;2023-02-28T00:59:26;0.80;;;0.80;;
10082;SDS011;5080;48.528;8.078;2023-02-28T01:01:54;0.90;;;0.90;;
10082;SDS011;5080;48.528;8.078;2023-02-28T01:04:21;0.73;;;0.73;;
10082;SDS011;5080;48.528;8.078;2023-02-28T01:06:48;0.85;;;0.85;;
10082;SDS011;5080;48.528;8.078;2023-02-28T01:09:14;0.80;;;0.80;;
10082;SDS011;5080;48.528;8.078;2023-02-28T01:11:41;0.90;;;0.90;;
10082;SDS011;5080;48.528;8.078;2023-02-28T01:14:10;0.80;;;0.80;;
10082;SDS011;5080;48.528;8.078;2023-02-28T01:16:39;0.85;;;0.85;;
10082;SDS011;5080;48.528;8.078;2023-02-28T01:19:08;0.90;;;0.90;;
10082;SDS011;5080;48.528;8.078;2023-02-28T01:21:35;1.40;;;0.90;;
10082;SDS011;5080;48.528;8.078;2023-02-28T01:24:02;0.75;;;0.75;;
10082;SDS011;5080;48.528;8.078;2023-02-28T01:26:30;0.80;;;0.80;;
10082;SDS011;5080;48.528;8.078;2023-02-28T01:28:57;0.80;;;0.80;;
10082;SDS011;5080;48.528;8.078;2023-02-28T01:31:24;0.80;;;0.80;;
10082;SDS011;5080;48.528;8.078;2023-02-28T01:33:51;0.90;;;0.90;;
10082;SDS011;5080;48.528;8.078;2023-02-28T01:36:20;0.80;;;0.80;;
10082;SDS011;5080;48.528;8.078;2023-02-28T01:38:49;0.80;;;0.80;;
10082;SDS011;5080;48.528;8.078;2023-02-28T01:41:18;1.03;;;0.73;;
10082;SDS011;5080;48.528;8.078;2023-02-28T01:43:55;0.90;;;0.90;;
10082;SDS011;5080;48.528;8.078;2023-02-28T01:46:29;0.95;;;0.95;;
10082;SDS011;5080;48.528;8.078;2023-02-28T01:48:58;0.82;;;0.82;;
10082;SDS011;5080;48.528;8.078;2023-02-28T01:51:32;0.90;;;0.90;;
10082;SDS011;5080;48.528;8.078;2023-02-28T01:54:05;0.80;;;0.80;;
10082;SDS011;5080;48.528;8.078;2023-02-28T01:56:38;0.90;;;0.90;;
10082;SDS011;5080;48.528;8.078;2023-02-28T01:59:08;0.70;;;0.70;;
10082;SDS011;5080;48.528;8.078;2023-02-28T02:01:36;0.90;;;0.90;;
10082;SDS011;5080;48.528;8.078;2023-02-28T02:04:03;0.90;;;0.90;;
10082;SDS011;5080;48.528;8.078;2023-02-28T02:06:34;0.90;;;0.90;;
10082;SDS011;5080;48.528;8.078;2023-02-28T02:09:04;0.80;;;0.80;;
10082;SDS011;5080;48.528;8.078;2023-02-28T02:11:31;0.80;;;0.80;;
10082;SDS011;5080;48.528;8.078;2023-02-28T02:14:07;0.85;;;0.85;;
10082;SDS011;5080;48.528;8.078;2023-02-28T02:16:54;0.80;;;0.80;;
10082;SDS011;5080;48.528;8.078;2023-02-28T02:22:43;0.80;;;0.80;;
10082;SDS011;5080;48.528;8.078;2023-02-28T02:25:35;0.80;;;0.80;;
10082;SDS011;5080;48.528;8.078;2023-02-28T02:28:14;0.80;;;0.80;;
10082;SDS011;5080;48.528;8.078;2023-02-28T02:31:16;0.70;;;0.70;;
10082;SDS011;5080;48.528;8.078;2023-02-28T02:34:26;1.15;;;0.95;;
10082;SDS011;5080;48.528;8.078;2023-02-28T02:37:13;0.90;;;0.90;;
10082;SDS011;5080;48.528;8.078;2023-02-28T02:39:48;0.87;;;0.87;;
10082;SDS011;5080;48.528;8.078;2023-02-28T02:42:19;0.77;;;0.77;;
10082;SDS011;5080;48.528;8.078;2023-02-28T02:44:50;0.83;;;0.83;;
10082;SDS011;5080;48.528;8.078;2023-02-28T02:47:24;0.73;;;0.73;;
10082;SDS011;5080;48.528;8.078;2023-02-28T02:49:57;1.17;;;0.88;;
10082;SDS011;5080;48.528;8.078;2023-02-28T02:52:29;0.80;;;0.80;;
10082;SDS011;5080;48.528;8.078;2023-02-28T02:55:04;0.90;;;0.90;;
10082;SDS011;5080;48.528;8.078;2023-02-28T02:57:36;0.80;;;0.80;;
10082;SDS011;5080;48.528;8.078;2023-02-28T03:00:09;0.80;;;0.80;;
10082;SDS011;5080;48.528;8.078;2023-02-28T03:02:37;0.90;;;0.90;;
10082;SDS011;5080;48.528;8.078;2023-02-28T03:05:08;1.00;;;1.00;;
10082;SDS011;5080;48.528;8.078;2023-02-28T03:07:42;1.00;;;1.00;;
10082;SDS011;5080;48.528;8.078;2023-02-28T03:10:28;0.77;;;0.77;;
10082;SDS011;5080;48.528;8.078;2023-02-28T03:13:07;1.00;;;1.00;;
10082;SDS011;5080;48.528;8.078;2023-02-28T03:15:46;0.90;;;0.90;;
10082;SDS011;5080;48.528;8.078;2023-02-28T03:18:22;0.90;;;0.90;;
10082;SDS011;5080;48.528;8.078;2023-02-28T03:21:00;0.90;;;0.90;;
10082;SDS011;5080;48.528;8.078;2023-02-28T03:23:34;0.90;;;0.90;;
10082;SDS011;5080;48.528;8.078;2023-02-28T03:26:06;1.00;;;1.00;;
10082;SDS011;5080;48.528;8.078;2023-02-28T03:28:41;0.80;;;0.80;;
10082;SDS011;5080;48.528;8.078;2023-02-28T03:31:14;1.20;;;1.20;;
10082;SDS011;5080;48.528;8.078;2023-02-28T03:33:46;1.00;;;1.00;;
10082;SDS011;5080;48.528;8.078;2023-02-28T03:36:21;0.90;;;0.90;;
10082;SDS011;5080;48.528;8.078;2023-02-28T03:38:53;0.80;;;0.80;;
10082;SDS011;5080;48.528;8.078;2023-02-28T03:41:27;0.77;;;0.77;;
10082;SDS011;5080;48.528;8.078;2023-02-28T03:43:58;0.90;;;0.90;;
10082;SDS011;5080;48.528;8.078;2023-02-28T03:46:30;0.90;;;0.90;;
10082;SDS011;5080;48.528;8.078;2023-02-28T03:49:00;0.90;;;0.90;;
10082;SDS011;5080;48.528;8.078;2023-02-28T03:51:33;1.00;;;1.00;;
10082;SDS011;5080;48.528;8.078;2023-02-28T03:54:03;1.00;;;1.00;;
10082;SDS011;5080;48.528;8.078;2023-02-28T03:56:34;0.90;;;0.90;;
10082;SDS011;5080;48.528;8.078;2023-02-28T03:59:06;1.00;;;1.00;;
10082;SDS011;5080;48.528;8.078;2023-02-28T04:01:39;0.80;;;0.80;;
10082;SDS011;5080;48.528;8.078;2023-02-28T04:04:08;1.63;;;1.00;;
10082;SDS011;5080;48.528;8.078;2023-02-28T04:06:37;0.80;;;0.80;;
10082;SDS011;5080;48.528;8.078;2023-02-28T04:09:06;0.85;;;0.85;;
10082;SDS011;5080;48.528;8.078;2023-02-28T04:11:34;1.35;;;1.25;;
10082;SDS011;5080;48.528;8.078;2023-02-28T04:14:03;0.90;;;0.90;;
10082;SDS011;5080;48.528;8.078;2023-02-28T04:16:31;0.90;;;0.90;;
10082;SDS011;5080;48.528;8.078;2023-02-28T04:18:58;0.90;;;0.90;;
10082;SDS011;5080;48.528;8.078;2023-02-28T04:21:28;0.80;;;0.80;;
10082;SDS011;5080;48.528;8.078;2023-02-28T04:23:56;1.10;;;1.10;;
10082;SDS011;5080;48.528;8.078;2023-02-28T04:26:25;1.08;;;1.08;;
10082;SDS011;5080;48.528;8.078;2023-02-28T04:28:54;1.05;;;1.05;;
10082;SDS011;5080;48.528;8.078;2023-02-28T04:31:21;0.88;;;0.88;;
10082;SDS011;5080;48.528;8.078;2023-02-28T04:33:48;0.90;;;0.90;;
10082;SDS011;5080;48.528;8.078;2023-02-28T04:36:15;1.00;;;1.00;;
10082;SDS011;5080;48.528;8.078;2023-02-28T04:38:43;1.00;;;1.00;;
10082;SDS011;5080;48.528;8.078;2023-02-28T04:41:11;1.00;;;1.00;;
10082;SDS011;5080;48.528;8.078;2023-02-28T04:43:39;0.90;;;0.90;;
10082;SDS011;5080;48.528;8.078;2023-02-28T04:46:06;1.10;;;1.10;;
10082;SDS011;5080;48.528;8.078;2023-02-28T04:48:33;1.23;;;1.23;;
10082;SDS011;5080;48.528;8.078;2023-02-28T04:51:01;0.90;;;0.90;;
10082;SDS011;5080;48.528;8.078;2023-02-28T04:53:29;1.10;;;1.10;;
10082;SDS011;5080;48.528;8.078;2023-02-28T04:55:56;1.07;;;1.07;;
10082;SDS011;5080;48.528;8.078;2023-02-28T04:58:25;0.90;;;0.90;;
10082;SDS011;5080;48.528;8.078;2023-02-28T05:00:53;1.10;;;1.10;;
10082;SDS011;5080;48.528;8.078;2023-02-28T05:03:27;1.15;;;1.15;;
10082;SDS011;5080;48.528;8.078;2023-02-28T05:05:53;1.08;;;1.08;;
10082;SDS011;5080;48.528;8.078;2023-02-28T05:08:20;0.95;;;0.95;;
10082;SDS011;5080;48.528;8.078;2023-02-28T05:10:47;1.10;;;1.10;;
10082;SDS011;5080;48.528;8.078;2023-02-28T05:13:14;1.00;;;1.00;;
10082;SDS011;5080;48.528;8.078;2023-02-28T05:15:42;1.20;;;1.20;;
10082;SDS011;5080;48.528;8.078;2023-02-28T05:18:09;1.33;;;1.33;;
10082;SDS011;5080;48.528;8.078;2023-02-28T05:20:35;1.00;;;1.00;;
10082;SDS011;5080;48.528;8.078;2023-02-28T05:23:02;0.80;;;0.80;;
10082;SDS011;5080;48.528;8.078;2023-02-28T05:25:29;1.00;;;1.00;;
10082;SDS011;5080;48.528;8.078;2023-02-28T05:27:56;1.13;;;1.13;;
10082;SDS011;5080;48.528;8.078;2023-02-28T05:30:24;1.20;;;1.20;;
10082;SDS011;5080;48.528;8.078;2023-02-28T05:32:52;1.38;;;1.38;;
10082;SDS011;5080;48.528;8.078;2023-02-28T05:35:19;1.30;;;1.30;;
10082;SDS011;5080;48.528;8.078;2023-02-28T05:37:45;1.63;;;1.52;;
10082;SDS011;5080;48.528;8.078;2023-02-28T05:40:12;1.20;;;1.20;;
10082;SDS011;5080;48.528;8.078;2023-02-28T05:42:40;1.40;;;1.40;;
10082;SDS011;5080;48.528;8.078;2023-02-28T05:45:08;1.55;;;1.50;;
10082;SDS011;5080;48.528;8.078;2023-02-28T05:47:35;1.40;;;1.30;;
10082;SDS011;5080;48.528;8.078;2023-02-28T05:50:04;1.30;;;1.30;;
10082;SDS011;5080;48.528;8.078;2023-02-28T05:52:32;1.30;;;1.30;;
10082;SDS011;5080;48.528;8.078;2023-02-28T05:54:58;1.10;;;1.10;;
10082;SDS011;5080;48.528;8.078;2023-02-28T05:57:25;1.60;;;1.50;;
10082;SDS011;5080;48.528;8.078;2023-02-28T05:59:52;1.20;;;1.20;;
10082;SDS011;5080;48.528;8.078;2023-02-28T06:02:19;1.50;;;1.40;;
10082;SDS011;5080;48.528;8.078;2023-02-28T06:04:46;1.30;;;1.30;;
10082;SDS011;5080;48.528;8.078;2023-02-28T06:07:14;1.60;;;1.50;;
10082;SDS011;5080;48.528;8.078;2023-02-28T06:09:42;1.20;;;1.20;;
10082;SDS011;5080;48.528;8.078;2023-02-28T06:12:09;1.20;;;1.20;;
10082;SDS011;5080;48.528;8.078;2023-02-28T06:14:36;1.60;;;1.50;;
10082;SDS011;5080;48.528;8.078;2023-02-28T06:17:03;1.57;;;1.47;;
10082;SDS011;5080;48.528;8.078;2023-02-28T06:19:30;1.20;;;1.20;;
10082;SDS011;5080;48.528;8.078;2023-02-28T06:21:57;1.57;;;1.50;;
10082;SDS011;5080;48.528;8.078;2023-02-28T06:24:26;1.47;;;1.40;;
10082;SDS011;5080;48.528;8.078;2023-02-28T06:26:54;1.50;;;1.40;;
10082;SDS011;5080;48.528;8.078;2023-02-28T06:29:20;1.30;;;1.30;;
10082;SDS011;5080;48.528;8.078;2023-02-28T06:31:48;1.35;;;1.20;;
10082;SDS011;5080;48.528;8.078;2023-02-28T06:34:15;1.20;;;1.20;;
10082;SDS011;5080;48.528;8.078;2023-02-28T06:36:42;1.50;;;1.40;;
10082;SDS011;5080;48.528;8.078;2023-02-28T06:39:09;1.33;;;1.33;;
10082;SDS011;5080;48.528;8.078;2023-02-28T06:41:38;1.30;;;1.30;;
10082;SDS011;5080;48.528;8.078;2023-02-28T06:44:05;1.23;;;1.23;;
10082;SDS011;5080;48.528;8.078;2023-02-28T06:46:38;1.33;;;1.30;;
10082;SDS011;5080;48.528;8.078;2023-02-28T06:49:05;1.50;;;1.40;;
10082;SDS011;5080;48.528;8.078;2023-02-28T06:51:33;1.83;;;1.73;;
10082;SDS011;5080;48.528;8.078;2023-02-28T06:54:02;1.60;;;1.50;;
10082;SDS011;5080;48.528;8.078;2023-02-28T06:56:29;2.13;;;2.00;;
10082;SDS011;5080;48.528;8.078;2023-02-28T06:58:57;1.50;;;1.40;;
10082;SDS011;5080;48.528;8.078;2023-02-28T07:01:24;3.70;;;1.33;;
10082;SDS011;5080;48.528;8.078;2023-02-28T07:03:53;1.20;;;1.20;;
10082;SDS011;5080;48.528;8.078;2023-02-28T07:06:20;1.20;;;1.20;;
10082;SDS011;5080;48.528;8.078;2023-02-28T07:08:48;1.40;;;1.30;;
10082;SDS011;5080;48.528;8.078;2023-02-28T07:11:17;1.47;;;1.40;;
10082;SDS011;5080;48.528;8.078;2023-02-28T07:13:44;1.27;;;1.27;;
10082;SDS011;5080;48.528;8.078;2023-02-28T07:16:13;1.35;;;1.35;;
10082;SDS011;5080;48.528;8.078;2023-02-28T07:18:40;1.40;;;1.40;;
10082;SDS011;5080;48.528;8.078;2023-02-28T07:21:08;1.30;;;1.30;;
10082;SDS011;5080;48.528;8.078;2023-02-28T07:23:36;1.40;;;1.40;;
10082;SDS011;5080;48.528;8.078;2023-02-28T07:26:04;1.30;;;1.27;;
10082;SDS011;5080;48.528;8.078;2023-02-28T07:28:31;1.30;;;1.30;;
10082;SDS011;5080;48.528;8.078;2023-02-28T07:31:02;1.27;;;1.27;;
10082;SDS011;5080;48.528;8.078;2023-02-28T07:33:31;1.33;;;1.30;;
10082;SDS011;5080;48.528;8.078;2023-02-28T07:36:02;1.60;;;1.50;;
10082;SDS011;5080;48.528;8.078;2023-02-28T07:38:31;1.50;;;1.40;;
10082;SDS011;5080;48.528;8.078;2023-02-28T07:41:00;1.77;;;1.67;;
10082;SDS011;5080;48.528;8.078;2023-02-28T07:43:29;1.80;;;1.70;;
10082;SDS011;5080;48.528;8.078;2023-02-28T07:46:00;1.40;;;1.40;;
10082;SDS011;5080;48.528;8.078;2023-02-28T07:48:27;1.30;;;1.30;;
10082;SDS011;5080;48.528;8.078;2023-02-28T07:50:56;1.60;;;1.50;;
10082;SDS011;5080;48.528;8.078;2023-02-28T07:53:23;1.50;;;1.40;;
10082;SDS011;5080;48.528;8.078;2023-02-28T07:55:50;1.80;;;1.70;;
10082;SDS011;5080;48.528;8.078;2023-02-28T07:58:16;1.65;;;1.55;;
10082;SDS011;5080;48.528;8.078;2023-02-28T08:00:43;1.53;;;1.43;;
10082;SDS011;5080;48.528;8.078;2023-02-28T08:03:10;2.20;;;2.10;;
10082;SDS011;5080;48.528;8.078;2023-02-28T08:05:38;1.30;;;1.30;;
10082;SDS011;5080;48.528;8.078;2023-02-28T08:08:07;1.53;;;1.53;;
10082;SDS011;5080;48.528;8.078;2023-02-28T08:10:34;1.50;;;1.40;;
10082;SDS011;5080;48.528;8.078;2023-02-28T08:13:01;1.75;;;1.65;;
10082;SDS011;5080;48.528;8.078;2023-02-28T08:15:28;1.47;;;1.43;;
10082;SDS011;5080;48.528;8.078;2023-02-28T08:17:55;1.90;;;1.80;;
10082;SDS011;5080;48.528;8.078;2023-02-28T08:20:22;1.92;;;1.77;;
10082;SDS011;5080;48.528;8.078;2023-02-28T08:22:49;1.73;;;1.63;;
10082;SDS011;5080;48.528;8.078;2023-02-28T08:25:18;1.30;;;1.30;;
10082;SDS011;5080;48.528;8.078;2023-02-28T08:27:45;1.70;;;1.60;;
10082;SDS011;5080;48.528;8.078;2023-02-28T08:30:12;1.83;;;1.73;;
10082;SDS011;5080;48.528;8.078;2023-02-28T08:32:40;1.80;;;1.70;;
10082;SDS011;5080;48.528;8.078;2023-02-28T08:35:07;1.60;;;1.50;;
10082;SDS011;5080;48.528;8.078;2023-02-28T08:37:35;1.57;;;1.50;;
10082;SDS011;5080;48.528;8.078;2023-02-28T08:40:02;1.67;;;1.57;;
10082;SDS011;5080;48.528;8.078;2023-02-28T08:42:31;1.80;;;1.70;;
10082;SDS011;5080;48.528;8.078;2023-02-28T08:44:58;1.80;;;1.70;;
10082;SDS011;5080;48.528;8.078;2023-02-28T08:47:25;2.80;;;2.00;;
10082;SDS011;5080;48.528;8.078;2023-02-28T08:49:52;1.73;;;1.63;;
10082;SDS011;5080;48.528;8.078;2023-02-28T08:52:19;1.65;;;1.55;;
10082;SDS011;5080;48.528;8.078;2023-02-28T08:54:46;1.58;;;1.48;;
10082;SDS011;5080;48.528;8.078;2023-02-28T08:57:12;1.50;;;1.40;;
10082;SDS011;5080;48.528;8.078;2023-02-28T08:59:41;2.05;;;1.95;;
10082;SDS011;5080;48.528;8.078;2023-02-28T09:02:08;2.00;;;1.90;;
10082;SDS011;5080;48.528;8.078;2023-02-28T09:04:38;1.67;;;1.60;;
10082;SDS011;5080;48.528;8.078;2023-02-28T09:07:05;1.38;;;1.38;;
10082;SDS011;5080;48.528;8.078;2023-02-28T09:09:31;1.80;;;1.70;;
10082;SDS011;5080;48.528;8.078;2023-02-28T09:11:58;1.67;;;1.57;;
10082;SDS011;5080;48.528;8.078;2023-02-28T09:14:25;1.48;;;1.48;;
10082;SDS011;5080;48.528;8.078;2023-02-28T09:16:54;1.60;;;1.50;;
10082;SDS011;5080;48.528;8.078;2023-02-28T09:19:20;1.63;;;1.52;;
10082;SDS011;5080;48.528;8.078;2023-02-28T09:21:48;1.58;;;1.48;;
10082;SDS011;5080;48.528;8.078;2023-02-28T09:24:14;1.70;;;1.60;;
10082;SDS011;5080;48.528;8.078;2023-02-28T09:26:41;1.60;;;1.50;;
10082;SDS011;5080;48.528;8.078;2023-02-28T09:29:08;1.80;;;1.70;;
10082;SDS011;5080;48.528;8.078;2023-02-28T09:31:37;1.88;;;1.77;;
10082;SDS011;5080;48.528;8.078;2023-02-28T09:34:06;1.80;;;1.70;;
10082;SDS011;5080;48.528;8.078;2023-02-28T09:36:33;1.60;;;1.50;;
10082;SDS011;5080;48.528;8.078;2023-02-28T09:39:00;1.40;;;1.40;;
10082;SDS011;5080;48.528;8.078;2023-02-28T09:41:27;2.00;;;1.90;;
10082;SDS011;5080;48.528;8.078;2023-02-28T09:44:00;1.97;;;1.87;;
10082;SDS011;5080;48.528;8.078;2023-02-28T09:46:31;1.80;;;1.70;;
10082;SDS011;5080;48.528;8.078;2023-02-28T09:49:00;1.80;;;1.70;;
10082;SDS011;5080;48.528;8.078;2023-02-28T09:51:34;2.07;;;1.97;;
10082;SDS011;5080;48.528;8.078;2023-02-28T09:54:09;1.80;;;1.70;;
10082;SDS011;5080;48.528;8.078;2023-02-28T09:56:43;1.40;;;1.40;;
10082;SDS011;5080;48.528;8.078;2023-02-28T09:59:13;1.70;;;1.60;;
10082;SDS011;5080;48.528;8.078;2023-02-28T10:01:47;1.77;;;1.67;;
10082;SDS011;5080;48.528;8.078;2023-02-28T10:04:29;1.95;;;1.85;;
10082;SDS011;5080;48.528;8.078;2023-02-28T10:07:05;1.73;;;1.63;;
10082;SDS011;5080;48.528;8.078;2023-02-28T10:09:44;1.60;;;1.52;;
10082;SDS011;5080;48.528;8.078;2023-02-28T10:12:13;1.65;;;1.58;;
10082;SDS011;5080;48.528;8.078;2023-02-28T10:14:43;1.50;;;1.50;;
10082;SDS011;5080;48.528;8.078;2023-02-28T10:17:13;1.48;;;1.48;;
10082;SDS011;5080;48.528;8.078;2023-02-28T10:19:47;1.70;;;1.60;;
10082;SDS011;5080;48.528;8.078;2023-02-28T10:22:23;1.97;;;1.70;;
10082;SDS011;5080;48.528;8.078;2023-02-28T10:24:54;1.70;;;1.60;;
10082;SDS011;5080;48.528;8.078;2023-02-28T10:27:27;1.60;;;1.50;;
10082;SDS011;5080;48.528;8.078;2023-02-28T10:29:57;1.90;;;1.80;;
10082;SDS011;5080;48.528;8.078;2023-02-28T10:32:26;1.60;;;1.50;;
10082;SDS011;5080;48.528;8.078;2023-02-28T10:34:55;1.60;;;1.50;;
10082;SDS011;5080;48.528;8.078;2023-02-28T10:37:26;1.70;;;1.60;;
10082;SDS011;5080;48.528;8.078;2023-02-28T10:39:53;1.80;;;1.70;;
10082;SDS011;5080;48.528;8.078;2023-02-28T10:42:22;1.60;;;1.50;;
10082;SDS011;5080;48.528;8.078;2023-02-28T10:45:10;1.73;;;1.63;;
10082;SDS011;5080;48.528;8.078;2023-02-28T10:47:41;2.10;;;1.90;;
10082;SDS011;5080;48.528;8.078;2023-02-28T10:53:24;3.17;;;1.90;;
10082;SDS011;5080;48.528;8.078;2023-02-28T10:55:57;1.93;;;1.77;;
10082;SDS011;5080;48.528;8.078;2023-02-28T10:58:26;1.80;;;1.70;;
10082;SDS011;5080;48.528;8.078;2023-02-28T11:00:55;1.70;;;1.60;;
10082;SDS011;5080;48.528;8.078;2023-02-28T11:03:24;1.50;;;1.50;;
10082;SDS011;5080;48.528;8.078;2023-02-28T11:05:56;1.50;;;1.50;;
10082;SDS011;5080;48.528;8.078;2023-02-28T11:08:25;1.50;;;1.40;;
10082;SDS011;5080;48.528;8.078;2023-02-28T11:10:55;1.60;;;1.50;;
10082;SDS011;5080;48.528;8.078;2023-02-28T11:13:25;2.13;;;1.60;;
10082;SDS011;5080;48.528;8.078;2023-02-28T11:15:55;1.90;;;1.80;;
10082;SDS011;5080;48.528;8.078;2023-02-28T11:18:24;1.70;;;1.60;;
10082;SDS011;5080;48.528;8.078;2023-02-28T11:20:55;1.90;;;1.80;;
10082;SDS011;5080;48.528;8.078;2023-02-28T11:23:28;1.77;;;1.67;;
10082;SDS011;5080;48.528;8.078;2023-02-28T11:25:58;1.83;;;1.73;;
10082;SDS011;5080;48.528;8.078;2023-02-28T11:28:28;1.60;;;1.50;;
10082;SDS011;5080;48.528;8.078;2023-02-28T11:31:01;1.52;;;1.42;;
10082;SDS011;5080;48.528;8.078;2023-02-28T11:33:31;2.45;;;1.48;;
10082;SDS011;5080;48.528;8.078;2023-02-28T11:36:08;1.80;;;1.70;;
10082;SDS011;5080;48.528;8.078;2023-02-28T11:38:39;1.77;;;1.67;;
10082;SDS011;5080;48.528;8.078;2023-02-28T11:41:11;1.70;;;1.60;;
10082;SDS011;5080;48.528;8.078;2023-02-28T11:43:52;1.53;;;1.43;;
10082;SDS011;5080;48.528;8.078;2023-02-28T11:46:30;2.17;;;1.98;;
10082;SDS011;5080;48.528;8.078;2023-02-28T11:49:06;1.90;;;1.80;;
10082;SDS011;5080;48.528;8.078;2023-02-28T11:51:50;1.80;;;1.70;;
10082;SDS011;5080;48.528;8.078;2023-02-28T11:54:41;1.80;;;1.70;;
10082;SDS011;5080;48.528;8.078;2023-02-28T11:57:30;1.85;;;1.75;;
10082;SDS011;5080;48.528;8.078;2023-02-28T12:00:08;1.70;;;1.60;;
10082;SDS011;5080;48.528;8.078;2023-02-28T12:02:51;1.80;;;1.70;;
10082;SDS011;5080;48.528;8.078;2023-02-28T12:05:28;1.92;;;1.83;;
10082;SDS011;5080;48.528;8.078;2023-02-28T12:08:03;1.57;;;1.50;;
10082;SDS011;5080;48.528;8.078;2023-02-28T12:10:42;1.57;;;1.50;;
10082;SDS011;5080;48.528;8.078;2023-02-28T12:13:16;1.83;;;1.73;;
10082;SDS011;5080;48.528;8.078;2023-02-28T12:15:54;1.70;;;1.60;;
10082;SDS011;5080;48.528;8.078;2023-02-28T12:18:53;1.87;;;1.77;;
10082;SDS011;5080;48.528;8.078;2023-02-28T12:21:36;2.40;;;1.70;;
10082;SDS011;5080;48.528;8.078;2023-02-28T12:24:18;1.85;;;1.75;;
10082;SDS011;5080;48.528;8.078;2023-02-28T12:27:10;1.77;;;1.67;;
10082;SDS011;5080;48.528;8.078;2023-02-28T12:29:43;1.70;;;1.60;;
10082;SDS011;5080;48.528;8.078;2023-02-28T12:32:16;1.80;;;1.70;;
10082;SDS011;5080;48.528;8.078;2023-02-28T12:34:47;1.83;;;1.73;;
10082;SDS011;5080;48.528;8.078;2023-02-28T12:37:19;1.40;;;1.40;;
10082;SDS011;5080;48.528;8.078;2023-02-28T12:39:50;1.80;;;1.70;;
10082;SDS011;5080;48.528;8.078;2023-02-28T12:42:24;1.60;;;1.57;;
10082;SDS011;5080;48.528;8.078;2023-02-28T12:44:55;1.63;;;1.50;;
10082;SDS011;5080;48.528;8.078;2023-02-28T12:47:25;1.45;;;1.42;;
10082;SDS011;5080;48.528;8.078;2023-02-28T12:49:53;1.90;;;1.80;;
10082;SDS011;5080;48.528;8.078;2023-02-28T12:52:25;1.70;;;1.60;;
10082;SDS011;5080;48.528;8.078;2023-02-28T12:55:03;1.63;;;1.53;;
10082;SDS011;5080;48.528;8.078;2023-02-28T12:57:36;1.60;;;1.50;;
10082;SDS011;5080;48.528;8.078;2023-02-28T13:00:10;1.60;;;1.60;;
10082;SDS011;5080;48.528;8.078;2023-02-28T13:02:47;1.70;;;1.60;;
10082;SDS011;5080;48.528;8.078;2023-02-28T13:05:36;1.57;;;1.53;;
10082;SDS011;5080;48.528;8.078;2023-02-28T13:08:23;4.00;;;1.77;;
10082;SDS011;5080;48.528;8.078;2023-02-28T13:11:23;1.80;;;1.70;;
10082;SDS011;5080;48.528;8.078;2023-02-28T13:13:58;1.40;;;1.40;;
10082;SDS011;5080;48.528;8.078;2023-02-28T13:16:26;1.47;;;1.47;;
10082;SDS011;5080;48.528;8.078;2023-02-28T13:18:56;1.30;;;1.30;;
10082;SDS011;5080;48.528;8.078;2023-02-28T13:21:41;1.80;;;1.70;;
10082;SDS011;5080;48.528;8.078;2023-02-28T13:24:09;1.52;;;1.52;;
10082;SDS011;5080;48.528;8.078;2023-02-28T13:29:51;1.70;;;1.60;;
10082;SDS011;5080;48.528;8.078;2023-02-28T13:32:19;1.33;;;1.33;;
10082;SDS011;5080;48.528;8.078;2023-02-28T13:38:12;1.65;;;1.55;;
10082;SDS011;5080;48.528;8.078;2023-02-28T13:40:43;1.40;;;1.40;;
10082;SDS011;5080;48.528;8.078;2023-02-28T13:43:10;1.73;;;1.63;;
10082;SDS011;5080;48.528;8.078;2023-02-28T13:45:38;1.40;;;1.40;;
10082;SDS011;5080;48.528;8.078;2023-02-28T13:48:25;1.30;;;1.30;;
10082;SDS011;5080;48.528;8.078;2023-02-28T13:50:54;1.73;;;1.60;;
10082;SDS011;5080;48.528;8.078;2023-02-28T13:56:23;1.70;;;1.60;;
10082;SDS011;5080;48.528;8.078;2023-02-28T13:58:59;1.33;;;1.33;;
10082;SDS011;5080;48.528;8.078;2023-02-28T14:01:50;1.63;;;1.53;;
10082;SDS011;5080;48.528;8.078;2023-02-28T14:04:44;1.40;;;1.40;;
10082;SDS011;5080;48.528;8.078;2023-02-28T14:07:25;1.40;;;1.40;;
10082;SDS011;5080;48.528;8.078;2023-02-28T14:09:58;1.73;;;1.60;;
10082;SDS011;5080;48.528;8.078;2023-02-28T14:15:28;1.60;;;1.50;;
10082;SDS011;5080;48.528;8.078;2023-02-28T14:18:05;1.40;;;1.40;;
10082;SDS011;5080;48.528;8.078;2023-02-28T14:20:43;1.60;;;1.50;;
10082;SDS011;5080;48.528;8.078;2023-02-28T14:23:15;1.33;;;1.33;;
10082;SDS011;5080;48.528;8.078;2023-02-28T14:26:01;2.15;;;1.60;;
10082;SDS011;5080;48.528;8.078;2023-02-28T14:28:38;1.50;;;1.40;;
10082;SDS011;5080;48.528;8.078;2023-02-28T14:31:17;1.57;;;1.47;;
10082;SDS011;5080;48.528;8.078;2023-02-28T14:34:03;1.67;;;1.57;;
10082;SDS011;5080;48.528;8.078;2023-02-28T14:36:47;1.60;;;1.50;;
10082;SDS011;5080;48.528;8.078;2023-02-28T14:39:17;1.30;;;1.30;;
10082;SDS011;5080;48.528;8.078;2023-02-28T14:41:48;1.40;;;1.40;;
10082;SDS011;5080;48.528;8.078;2023-02-28T14:44:16;1.50;;;1.50;;
10082;SDS011;5080;48.528;8.078;2023-02-28T14:46:45;1.30;;;1.30;;
10082;SDS011;5080;48.528;8.078;2023-02-28T14:49:18;1.40;;;1.40;;
10082;SDS011;5080;48.528;8.078;2023-02-28T14:51:46;1.40;;;1.40;;
10082;SDS011;5080;48.528;8.078;2023-02-28T14:54:15;1.40;;;1.40;;
10082;SDS011;5080;48.528;8.078;2023-02-28T14:56:48;1.30;;;1.30;;
10082;SDS011;5080;48.528;8.078;2023-02-28T15:02:17;1.20;;;1.20;;
10082;SDS011;5080;48.528;8.078;2023-02-28T15:04:54;1.60;;;1.50;;
10082;SDS011;5080;48.528;8.078;2023-02-28T15:07:22;1.70;;;1.60;;
10082;SDS011;5080;48.528;8.078;2023-02-28T15:12:56;1.53;;;1.50;;
10082;SDS011;5080;48.528;8.078;2023-02-28T15:15:24;1.33;;;1.30;;
10082;SDS011;5080;48.528;8.078;2023-02-28T15:17:59;1.50;;;1.40;;
10082;SDS011;5080;48.528;8.078;2023-02-28T15:20:30;1.63;;;1.53;;
10082;SDS011;5080;48.528;8.078;2023-02-28T15:23:00;1.30;;;1.30;;
10082;SDS011;5080;48.528;8.078;2023-02-28T15:25:27;1.40;;;1.40;;
10082;SDS011;5080;48.528;8.078;2023-02-28T15:27:55;1.50;;;1.40;;
10082;SDS011;5080;48.528;8.078;2023-02-28T15:30:24;1.80;;;1.70;;
10082;SDS011;5080;48.528;8.078;2023-02-28T15:33:07;1.40;;;1.40;;
10082;SDS011;5080;48.528;8.078;2023-02-28T15:35:47;1.20;;;1.20;;
10082;SDS011;5080;48.528;8.078;2023-02-28T15:38:15;1.40;;;1.40;;
10082;SDS011;5080;48.528;8.078;2023-02-28T15:40:45;1.20;;;1.20;;
10082;SDS011;5080;48.528;8.078;2023-02-28T15:43:18;1.20;;;1.20;;
10082;SDS011;5080;48.528;8.078;2023-02-28T15:45:51;1.42;;;1.40;;
10082;SDS011;5080;48.528;8.078;2023-02-28T15:48:21;1.40;;;1.40;;